sensor_id;sensor_type;location;lat;lon;timestamp;temperature;humidity
36444;DHT22;24692;45.642;13.806;2024-02-23T00:02:15;10.20;99.90
36444;DHT22;24692;45.642;13.806;2024-02-23T00:04:41;10.20;99.90
36444;DHT22;24692;45.642;13.806;2024-02-23T00:07:07;10.20;99.90
36444;DHT22;24692;45.642;13.806;2024-02-23T00:09:33;10.20;99.90
36444;DHT22;24692;45.642;13.806;2024-02-23T00:11:59;10.20;99.90
36444;DHT22;24692;45.642;13.806;2024-02-23T00:14:25;10.20;99.90
36444;DHT22;24692;45.642;13.806;2024-02-23T00:16:50;10.20;99.90
36444;DHT22;24692;45.642;13.806;2024-02-23T00:19:16;10.20;99.90
36444;DHT22;24692;45.642;13.806;2024-02-23T00:21:44;10.20;99.90
36444;DHT22;24692;45.642;13.806;2024-02-23T00:24:13;10.20;99.90
36444;DHT22;24692;45.642;13.806;2024-02-23T00:26:39;10.20;99.90
36444;DHT22;24692;45.642;13.806;2024-02-23T00:29:04;10.20;99.90
36444;DHT22;24692;45.642;13.806;2024-02-23T00:31:30;10.20;99.90
36444;DHT22;24692;45.642;13.806;2024-02-23T00:33:55;10.20;99.90
36444;DHT22;24692;45.642;13.806;2024-02-23T00:36:21;10.10;99.90
36444;DHT22;24692;45.642;13.806;2024-02-23T00:38:47;10.20;99.90
36444;DHT22;24692;45.642;13.806;2024-02-23T00:41:13;10.20;99.90
36444;DHT22;24692;45.642;13.806;2024-02-23T00:43:39;10.10;99.90
36444;DHT22;24692;45.642;13.806;2024-02-23T00:46:06;10.10;99.90
36444;DHT22;24692;45.642;13.806;2024-02-23T00:48:32;10.10;99.90
36444;DHT22;24692;45.642;13.806;2024-02-23T00:50:58;10.10;99.90
36444;DHT22;24692;45.642;13.806;2024-02-23T00:53:23;10.10;99.90
36444;DHT22;24692;45.642;13.806;2024-02-23T00:55:49;10.10;99.90
36444;DHT22;24692;45.642;13.806;2024-02-23T00:58:15;10.20;99.90
36444;DHT22;24692;45.642;13.806;2024-02-23T01:00:41;10.20;99.90
36444;DHT22;24692;45.642;13.806;2024-02-23T01:03:07;10.20;99.90
36444;DHT22;24692;45.642;13.806;2024-02-23T01:05:33;10.10;99.90
36444;DHT22;24692;45.642;13.806;2024-02-23T01:07:58;10.10;99.90
36444;DHT22;24692;45.642;13.806;2024-02-23T01:10:24;10.10;99.90
36444;DHT22;24692;45.642;13.806;2024-02-23T01:12:50;10.10;99.90
36444;DHT22;24692;45.642;13.806;2024-02-23T01:15:15;10.00;99.90
36444;DHT22;24692;45.642;13.806;2024-02-23T01:17:41;10.00;99.90
36444;DHT22;24692;45.642;13.806;2024-02-23T01:20:08;10.00;99.90
36444;DHT22;24692;45.642;13.806;2024-02-23T01:22:34;10.00;99.90
36444;DHT22;24692;45.642;13.806;2024-02-23T01:24:59;10.00;99.90
36444;DHT22;24692;45.642;13.806;2024-02-23T01:27:25;10.10;99.90
36444;DHT22;24692;45.642;13.806;2024-02-23T01:29:51;10.10;99.90
36444;DHT22;24692;45.642;13.806;2024-02-23T01:32:16;10.10;99.90
36444;DHT22;24692;45.642;13.806;2024-02-23T01:34:42;10.10;99.90
36444;DHT22;24692;45.642;13.806;2024-02-23T01:37:08;10.20;99.90
36444;DHT22;24692;45.642;13.806;2024-02-23T01:39:34;10.20;99.90
36444;DHT22;24692;45.642;13.806;2024-02-23T01:41:59;10.20;99.90
36444;DHT22;24692;45.642;13.806;2024-02-23T01:44:25;10.20;99.90
36444;DHT22;24692;45.642;13.806;2024-02-23T01:46:51;10.20;99.90
36444;DHT22;24692;45.642;13.806;2024-02-23T01:49:17;10.20;99.90
36444;DHT22;24692;45.642;13.806;2024-02-23T01:51:43;10.20;99.90
36444;DHT22;24692;45.642;13.806;2024-02-23T01:54:09;10.10;99.90
36444;DHT22;24692;45.642;13.806;2024-02-23T01:56:36;10.10;99.90
36444;DHT22;24692;45.642;13.806;2024-02-23T01:59:05;10.00;99.90
36444;DHT22;24692;45.642;13.806;2024-02-23T02:01:31;10.00;99.90
36444;DHT22;24692;45.642;13.806;2024-02-23T02:03:58;10.00;99.90
36444;DHT22;24692;45.642;13.806;2024-02-23T02:06:24;10.00;99.90
36444;DHT22;24692;45.642;13.806;2024-02-23T02:08:50;10.00;99.90
36444;DHT22;24692;45.642;13.806;2024-02-23T02:11:16;10.00;99.90
36444;DHT22;24692;45.642;13.806;2024-02-23T02:13:41;10.00;99.90
36444;DHT22;24692;45.642;13.806;2024-02-23T02:16:07;10.10;99.90
36444;DHT22;24692;45.642;13.806;2024-02-23T02:18:33;10.10;99.90
36444;DHT22;24692;45.642;13.806;2024-02-23T02:20:59;10.00;99.90
36444;DHT22;24692;45.642;13.806;2024-02-23T02:23:25;10.10;99.90
36444;DHT22;24692;45.642;13.806;2024-02-23T02:25:54;10.10;99.90
36444;DHT22;24692;45.642;13.806;2024-02-23T02:28:20;10.10;99.90
36444;DHT22;24692;45.642;13.806;2024-02-23T02:30:45;10.20;99.90
36444;DHT22;24692;45.642;13.806;2024-02-23T02:33:11;10.20;99.90
36444;DHT22;24692;45.642;13.806;2024-02-23T02:35:37;10.20;99.90
36444;DHT22;24692;45.642;13.806;2024-02-23T02:38:02;10.20;99.90
36444;DHT22;24692;45.642;13.806;2024-02-23T02:40:28;10.20;99.90
36444;DHT22;24692;45.642;13.806;2024-02-23T02:42:54;10.20;99.90
36444;DHT22;24692;45.642;13.806;2024-02-23T02:45:19;10.20;99.90
36444;DHT22;24692;45.642;13.806;2024-02-23T02:47:45;10.20;99.90
36444;DHT22;24692;45.642;13.806;2024-02-23T02:50:11;10.30;99.90
36444;DHT22;24692;45.642;13.806;2024-02-23T02:52:36;10.20;99.90
36444;DHT22;24692;45.642;13.806;2024-02-23T02:55:02;10.20;99.90
36444;DHT22;24692;45.642;13.806;2024-02-23T02:57:28;10.20;99.90
36444;DHT22;24692;45.642;13.806;2024-02-23T02:59:55;10.20;99.90
36444;DHT22;24692;45.642;13.806;2024-02-23T03:02:21;10.20;99.90
36444;DHT22;24692;45.642;13.806;2024-02-23T03:04:50;10.10;99.90
36444;DHT22;24692;45.642;13.806;2024-02-23T03:07:19;10.10;99.90
36444;DHT22;24692;45.642;13.806;2024-02-23T03:09:44;10.10;99.90
36444;DHT22;24692;45.642;13.806;2024-02-23T03:12:10;10.10;99.90
36444;DHT22;24692;45.642;13.806;2024-02-23T03:14:36;10.20;99.90
36444;DHT22;24692;45.642;13.806;2024-02-23T03:17:07;10.20;99.90
36444;DHT22;24692;45.642;13.806;2024-02-23T03:19:33;10.10;99.90
36444;DHT22;24692;45.642;13.806;2024-02-23T03:21:59;10.10;99.90
36444;DHT22;24692;45.642;13.806;2024-02-23T03:24:24;10.10;99.90
36444;DHT22;24692;45.642;13.806;2024-02-23T03:26:50;10.10;99.90
36444;DHT22;24692;45.642;13.806;2024-02-23T03:29:16;10.10;99.90
36444;DHT22;24692;45.642;13.806;2024-02-23T03:31:41;10.10;99.90
36444;DHT22;24692;45.642;13.806;2024-02-23T03:34:07;10.10;99.90
36444;DHT22;24692;45.642;13.806;2024-02-23T03:36:34;10.10;99.90
36444;DHT22;24692;45.642;13.806;2024-02-23T03:39:00;10.10;99.90
36444;DHT22;24692;45.642;13.806;2024-02-23T03:41:25;10.10;99.90
36444;DHT22;24692;45.642;13.806;2024-02-23T03:43:51;10.20;99.90
36444;DHT22;24692;45.642;13.806;2024-02-23T03:46:17;10.20;99.90
36444;DHT22;24692;45.642;13.806;2024-02-23T03:48:44;10.20;99.90
36444;DHT22;24692;45.642;13.806;2024-02-23T03:51:10;10.20;99.90
36444;DHT22;24692;45.642;13.806;2024-02-23T03:53:35;10.30;99.90
36444;DHT22;24692;45.642;13.806;2024-02-23T03:56:01;10.30;99.90
36444;DHT22;24692;45.642;13.806;2024-02-23T03:58:27;10.20;99.90
36444;DHT22;24692;45.642;13.806;2024-02-23T04:00:52;10.10;99.90
36444;DHT22;24692;45.642;13.806;2024-02-23T04:03:18;10.20;99.90
36444;DHT22;24692;45.642;13.806;2024-02-23T04:05:44;10.20;99.90
36444;DHT22;24692;45.642;13.806;2024-02-23T04:08:09;10.10;99.90
36444;DHT22;24692;45.642;13.806;2024-02-23T04:10:35;10.10;99.90
36444;DHT22;24692;45.642;13.806;2024-02-23T04:13:01;10.20;99.90
36444;DHT22;24692;45.642;13.806;2024-02-23T04:15:27;10.20;99.90
36444;DHT22;24692;45.642;13.806;2024-02-23T04:17:53;10.20;99.90
36444;DHT22;24692;45.642;13.806;2024-02-23T04:20:18;10.20;99.90
36444;DHT22;24692;45.642;13.806;2024-02-23T04:22:44;10.20;99.90
36444;DHT22;24692;45.642;13.806;2024-02-23T04:25:10;10.20;99.90
36444;DHT22;24692;45.642;13.806;2024-02-23T04:27:36;10.20;99.90
36444;DHT22;24692;45.642;13.806;2024-02-23T04:30:02;10.20;99.90
36444;DHT22;24692;45.642;13.806;2024-02-23T04:32:28;10.20;99.90
36444;DHT22;24692;45.642;13.806;2024-02-23T04:34:54;10.20;99.90
36444;DHT22;24692;45.642;13.806;2024-02-23T04:37:19;10.20;99.90
36444;DHT22;24692;45.642;13.806;2024-02-23T04:39:45;10.20;99.90
36444;DHT22;24692;45.642;13.806;2024-02-23T04:42:11;10.20;99.90
36444;DHT22;24692;45.642;13.806;2024-02-23T04:44:36;10.30;99.90
36444;DHT22;24692;45.642;13.806;2024-02-23T04:47:02;10.30;99.90
36444;DHT22;24692;45.642;13.806;2024-02-23T04:49:28;10.30;99.90
36444;DHT22;24692;45.642;13.806;2024-02-23T04:51:54;10.30;99.90
36444;DHT22;24692;45.642;13.806;2024-02-23T04:54:20;10.30;99.90
36444;DHT22;24692;45.642;13.806;2024-02-23T04:56:46;10.30;99.90
36444;DHT22;24692;45.642;13.806;2024-02-23T04:59:13;10.30;99.90
36444;DHT22;24692;45.642;13.806;2024-02-23T05:01:39;10.30;99.90
36444;DHT22;24692;45.642;13.806;2024-02-23T05:04:04;10.30;99.90
36444;DHT22;24692;45.642;13.806;2024-02-23T05:06:30;10.30;99.90
36444;DHT22;24692;45.642;13.806;2024-02-23T05:08:56;10.30;99.90
36444;DHT22;24692;45.642;13.806;2024-02-23T05:11:21;10.30;99.90
36444;DHT22;24692;45.642;13.806;2024-02-23T05:13:47;10.40;99.90
36444;DHT22;24692;45.642;13.806;2024-02-23T05:16:16;10.40;99.90
36444;DHT22;24692;45.642;13.806;2024-02-23T05:18:43;10.40;99.90
36444;DHT22;24692;45.642;13.806;2024-02-23T05:21:09;10.50;99.90
36444;DHT22;24692;45.642;13.806;2024-02-23T05:23:35;10.50;99.90
36444;DHT22;24692;45.642;13.806;2024-02-23T05:26:01;10.60;99.90
36444;DHT22;24692;45.642;13.806;2024-02-23T05:28:27;10.50;99.90
36444;DHT22;24692;45.642;13.806;2024-02-23T05:30:54;10.50;99.90
36444;DHT22;24692;45.642;13.806;2024-02-23T05:33:20;10.60;99.90
36444;DHT22;24692;45.642;13.806;2024-02-23T05:35:48;10.60;99.90
36444;DHT22;24692;45.642;13.806;2024-02-23T05:38:15;10.60;99.90
36444;DHT22;24692;45.642;13.806;2024-02-23T05:40:40;10.60;99.90
36444;DHT22;24692;45.642;13.806;2024-02-23T05:43:06;10.70;99.90
36444;DHT22;24692;45.642;13.806;2024-02-23T05:45:32;10.70;99.90
36444;DHT22;24692;45.642;13.806;2024-02-23T05:47:58;10.70;99.90
36444;DHT22;24692;45.642;13.806;2024-02-23T05:50:24;10.80;99.90
36444;DHT22;24692;45.642;13.806;2024-02-23T05:52:49;10.90;99.90
36444;DHT22;24692;45.642;13.806;2024-02-23T05:55:15;10.90;99.90
36444;DHT22;24692;45.642;13.806;2024-02-23T05:57:41;11.10;99.90
36444;DHT22;24692;45.642;13.806;2024-02-23T06:00:08;11.10;99.90
36444;DHT22;24692;45.642;13.806;2024-02-23T06:02:33;11.30;99.90
36444;DHT22;24692;45.642;13.806;2024-02-23T06:04:59;11.30;99.90
36444;DHT22;24692;45.642;13.806;2024-02-23T06:07:25;11.30;99.90
36444;DHT22;24692;45.642;13.806;2024-02-23T06:09:55;11.30;99.90
36444;DHT22;24692;45.642;13.806;2024-02-23T06:12:21;11.30;99.90
36444;DHT22;24692;45.642;13.806;2024-02-23T06:14:47;11.40;99.90
36444;DHT22;24692;45.642;13.806;2024-02-23T06:17:13;11.50;99.90
36444;DHT22;24692;45.642;13.806;2024-02-23T06:19:38;11.60;99.90
36444;DHT22;24692;45.642;13.806;2024-02-23T06:22:04;11.60;99.90
36444;DHT22;24692;45.642;13.806;2024-02-23T06:24:30;11.60;99.90
36444;DHT22;24692;45.642;13.806;2024-02-23T06:26:55;11.70;99.90
36444;DHT22;24692;45.642;13.806;2024-02-23T06:29:23;11.60;99.90
36444;DHT22;24692;45.642;13.806;2024-02-23T06:31:48;11.60;99.90
36444;DHT22;24692;45.642;13.806;2024-02-23T06:34:15;11.60;99.90
36444;DHT22;24692;45.642;13.806;2024-02-23T06:36:41;11.70;99.90
36444;DHT22;24692;45.642;13.806;2024-02-23T06:39:07;11.60;99.90
36444;DHT22;24692;45.642;13.806;2024-02-23T06:41:34;11.70;99.90
36444;DHT22;24692;45.642;13.806;2024-02-23T06:43:59;11.70;99.90
36444;DHT22;24692;45.642;13.806;2024-02-23T06:46:26;11.80;99.90
36444;DHT22;24692;45.642;13.806;2024-02-23T06:48:51;11.70;99.90
36444;DHT22;24692;45.642;13.806;2024-02-23T06:51:17;11.70;99.90
36444;DHT22;24692;45.642;13.806;2024-02-23T06:53:43;11.80;99.90
36444;DHT22;24692;45.642;13.806;2024-02-23T06:56:09;11.90;99.90
36444;DHT22;24692;45.642;13.806;2024-02-23T06:58:35;12.00;99.90
36444;DHT22;24692;45.642;13.806;2024-02-23T07:01:01;12.10;99.90
36444;DHT22;24692;45.642;13.806;2024-02-23T07:03:28;12.10;99.90
36444;DHT22;24692;45.642;13.806;2024-02-23T07:05:56;12.20;99.90
36444;DHT22;24692;45.642;13.806;2024-02-23T07:08:22;12.20;99.90
36444;DHT22;24692;45.642;13.806;2024-02-23T07:10:47;12.20;99.90
36444;DHT22;24692;45.642;13.806;2024-02-23T07:13:13;12.20;99.90
36444;DHT22;24692;45.642;13.806;2024-02-23T07:15:39;12.20;99.90
36444;DHT22;24692;45.642;13.806;2024-02-23T07:18:05;12.20;99.90
36444;DHT22;24692;45.642;13.806;2024-02-23T07:20:31;12.20;99.90
36444;DHT22;24692;45.642;13.806;2024-02-23T07:22:56;12.20;99.90
36444;DHT22;24692;45.642;13.806;2024-02-23T07:25:22;12.30;99.90
36444;DHT22;24692;45.642;13.806;2024-02-23T07:27:48;12.30;99.90
36444;DHT22;24692;45.642;13.806;2024-02-23T07:30:17;12.20;99.90
36444;DHT22;24692;45.642;13.806;2024-02-23T07:32:43;12.20;99.90
36444;DHT22;24692;45.642;13.806;2024-02-23T07:35:10;12.30;99.90
36444;DHT22;24692;45.642;13.806;2024-02-23T07:37:38;12.30;99.90
36444;DHT22;24692;45.642;13.806;2024-02-23T07:40:05;12.30;99.90
36444;DHT22;24692;45.642;13.806;2024-02-23T07:42:32;12.30;99.90
36444;DHT22;24692;45.642;13.806;2024-02-23T07:44:58;12.30;99.90
36444;DHT22;24692;45.642;13.806;2024-02-23T07:47:24;12.30;99.90
36444;DHT22;24692;45.642;13.806;2024-02-23T07:49:49;12.30;99.90
36444;DHT22;24692;45.642;13.806;2024-02-23T07:52:16;12.40;99.90
36444;DHT22;24692;45.642;13.806;2024-02-23T07:54:42;12.30;99.90
36444;DHT22;24692;45.642;13.806;2024-02-23T07:57:07;12.40;99.90
36444;DHT22;24692;45.642;13.806;2024-02-23T07:59:33;12.40;99.90
36444;DHT22;24692;45.642;13.806;2024-02-23T08:01:59;12.40;99.90
36444;DHT22;24692;45.642;13.806;2024-02-23T08:04:25;12.40;99.90
36444;DHT22;24692;45.642;13.806;2024-02-23T08:06:51;12.50;99.90
36444;DHT22;24692;45.642;13.806;2024-02-23T08:09:17;12.50;99.90
36444;DHT22;24692;45.642;13.806;2024-02-23T08:11:43;12.50;99.90
36444;DHT22;24692;45.642;13.806;2024-02-23T08:14:09;12.50;99.90
36444;DHT22;24692;45.642;13.806;2024-02-23T08:16:35;12.50;99.90
36444;DHT22;24692;45.642;13.806;2024-02-23T08:19:00;12.60;99.90
36444;DHT22;24692;45.642;13.806;2024-02-23T08:21:26;12.60;99.90
36444;DHT22;24692;45.642;13.806;2024-02-23T08:23:52;12.60;99.90
36444;DHT22;24692;45.642;13.806;2024-02-23T08:26:18;12.70;99.90
36444;DHT22;24692;45.642;13.806;2024-02-23T08:28:44;12.70;99.90
36444;DHT22;24692;45.642;13.806;2024-02-23T08:31:09;12.80;99.90
36444;DHT22;24692;45.642;13.806;2024-02-23T08:33:35;12.80;99.90
36444;DHT22;24692;45.642;13.806;2024-02-23T08:36:01;12.70;99.90
36444;DHT22;24692;45.642;13.806;2024-02-23T08:38:27;12.70;99.90
36444;DHT22;24692;45.642;13.806;2024-02-23T08:40:52;12.70;99.90
36444;DHT22;24692;45.642;13.806;2024-02-23T08:43:18;12.80;99.90
36444;DHT22;24692;45.642;13.806;2024-02-23T08:45:45;12.80;99.90
36444;DHT22;24692;45.642;13.806;2024-02-23T08:48:11;12.80;99.90
36444;DHT22;24692;45.642;13.806;2024-02-23T08:50:40;12.80;99.90
36444;DHT22;24692;45.642;13.806;2024-02-23T08:53:06;12.80;99.90
36444;DHT22;24692;45.642;13.806;2024-02-23T08:55:32;12.80;99.90
36444;DHT22;24692;45.642;13.806;2024-02-23T08:57:59;12.80;99.90
36444;DHT22;24692;45.642;13.806;2024-02-23T09:00:24;12.80;99.90
36444;DHT22;24692;45.642;13.806;2024-02-23T09:02:50;12.70;99.90
36444;DHT22;24692;45.642;13.806;2024-02-23T09:05:16;12.70;99.90
36444;DHT22;24692;45.642;13.806;2024-02-23T09:07:41;12.80;99.90
36444;DHT22;24692;45.642;13.806;2024-02-23T09:10:07;12.90;99.90
36444;DHT22;24692;45.642;13.806;2024-02-23T09:12:34;13.10;99.90
36444;DHT22;24692;45.642;13.806;2024-02-23T09:14:59;13.00;99.90
36444;DHT22;24692;45.642;13.806;2024-02-23T09:17:25;13.10;99.90
36444;DHT22;24692;45.642;13.806;2024-02-23T09:19:51;13.10;99.90
36444;DHT22;24692;45.642;13.806;2024-02-23T09:22:17;13.20;99.90
36444;DHT22;24692;45.642;13.806;2024-02-23T09:24:44;13.10;99.90
36444;DHT22;24692;45.642;13.806;2024-02-23T09:27:09;13.10;99.90
36444;DHT22;24692;45.642;13.806;2024-02-23T09:29:35;13.10;99.90
36444;DHT22;24692;45.642;13.806;2024-02-23T09:32:01;13.10;99.90
36444;DHT22;24692;45.642;13.806;2024-02-23T09:34:27;13.40;99.90
36444;DHT22;24692;45.642;13.806;2024-02-23T09:36:53;13.40;99.90
36444;DHT22;24692;45.642;13.806;2024-02-23T09:39:18;13.20;99.90
36444;DHT22;24692;45.642;13.806;2024-02-23T09:41:45;13.20;99.90
36444;DHT22;24692;45.642;13.806;2024-02-23T09:44:15;13.00;99.90
36444;DHT22;24692;45.642;13.806;2024-02-23T09:46:43;13.10;99.90
36444;DHT22;24692;45.642;13.806;2024-02-23T09:49:11;13.30;99.90
36444;DHT22;24692;45.642;13.806;2024-02-23T09:51:39;13.20;99.90
36444;DHT22;24692;45.642;13.806;2024-02-23T09:54:04;13.20;99.90
36444;DHT22;24692;45.642;13.806;2024-02-23T09:56:31;13.30;99.90
36444;DHT22;24692;45.642;13.806;2024-02-23T09:59:01;13.30;99.90
36444;DHT22;24692;45.642;13.806;2024-02-23T10:01:30;13.30;99.90
36444;DHT22;24692;45.642;13.806;2024-02-23T10:03:57;13.20;99.90
36444;DHT22;24692;45.642;13.806;2024-02-23T10:06:24;14.00;99.90
36444;DHT22;24692;45.642;13.806;2024-02-23T10:08:50;13.90;99.90
36444;DHT22;24692;45.642;13.806;2024-02-23T10:11:20;13.50;99.90
36444;DHT22;24692;45.642;13.806;2024-02-23T10:13:47;13.30;99.90
36444;DHT22;24692;45.642;13.806;2024-02-23T10:16:18;13.10;99.90
36444;DHT22;24692;45.642;13.806;2024-02-23T10:18:46;13.10;99.90
36444;DHT22;24692;45.642;13.806;2024-02-23T10:21:17;13.20;99.90
36444;DHT22;24692;45.642;13.806;2024-02-23T10:23:44;13.30;99.90
36444;DHT22;24692;45.642;13.806;2024-02-23T10:26:10;13.40;99.90
36444;DHT22;24692;45.642;13.806;2024-02-23T10:28:37;13.40;99.90
36444;DHT22;24692;45.642;13.806;2024-02-23T10:31:06;13.40;99.90
36444;DHT22;24692;45.642;13.806;2024-02-23T10:33:32;13.50;99.90
36444;DHT22;24692;45.642;13.806;2024-02-23T10:35:58;13.40;99.90
36444;DHT22;24692;45.642;13.806;2024-02-23T10:38:32;13.80;99.90
36444;DHT22;24692;45.642;13.806;2024-02-23T10:40:58;14.10;99.90
36444;DHT22;24692;45.642;13.806;2024-02-23T10:43:50;13.80;99.90
36444;DHT22;24692;45.642;13.806;2024-02-23T10:46:17;13.50;99.90
36444;DHT22;24692;45.642;13.806;2024-02-23T10:48:44;13.50;99.90
36444;DHT22;24692;45.642;13.806;2024-02-23T10:53:39;13.20;99.90
36444;DHT22;24692;45.642;13.806;2024-02-23T10:56:05;13.30;99.90
36444;DHT22;24692;45.642;13.806;2024-02-23T10:58:30;13.30;99.90
36444;DHT22;24692;45.642;13.806;2024-02-23T11:01:01;13.40;99.90
36444;DHT22;24692;45.642;13.806;2024-02-23T11:03:32;13.60;99.90
36444;DHT22;24692;45.642;13.806;2024-02-23T11:05:59;13.70;99.90
36444;DHT22;24692;45.642;13.806;2024-02-23T11:08:28;13.90;99.90
36444;DHT22;24692;45.642;13.806;2024-02-23T11:10:54;14.00;99.90
36444;DHT22;24692;45.642;13.806;2024-02-23T11:13:38;13.90;99.90
36444;DHT22;24692;45.642;13.806;2024-02-23T11:16:04;13.80;99.90
36444;DHT22;24692;45.642;13.806;2024-02-23T11:18:30;13.80;99.90
36444;DHT22;24692;45.642;13.806;2024-02-23T11:21:02;13.80;99.90
36444;DHT22;24692;45.642;13.806;2024-02-23T11:23:48;13.60;99.90
36444;DHT22;24692;45.642;13.806;2024-02-23T11:26:14;13.60;99.90
36444;DHT22;24692;45.642;13.806;2024-02-23T11:28:49;13.50;99.90
36444;DHT22;24692;45.642;13.806;2024-02-23T11:31:23;13.50;99.90
36444;DHT22;24692;45.642;13.806;2024-02-23T11:36:30;13.10;99.90
36444;DHT22;24692;45.642;13.806;2024-02-23T11:39:00;13.00;99.90
36444;DHT22;24692;45.642;13.806;2024-02-23T11:41:27;13.10;99.90
36444;DHT22;24692;45.642;13.806;2024-02-23T11:43:54;13.20;99.90
36444;DHT22;24692;45.642;13.806;2024-02-23T11:46:21;13.10;99.90
36444;DHT22;24692;45.642;13.806;2024-02-23T11:48:47;13.10;99.90
36444;DHT22;24692;45.642;13.806;2024-02-23T11:51:19;13.10;99.90
36444;DHT22;24692;45.642;13.806;2024-02-23T11:53:45;13.10;99.90
36444;DHT22;24692;45.642;13.806;2024-02-23T11:56:11;13.10;99.90
36444;DHT22;24692;45.642;13.806;2024-02-23T11:58:37;13.10;99.90
36444;DHT22;24692;45.642;13.806;2024-02-23T12:01:03;13.20;99.90
36444;DHT22;24692;45.642;13.806;2024-02-23T12:03:29;13.20;99.90
36444;DHT22;24692;45.642;13.806;2024-02-23T12:05:58;13.30;99.90
36444;DHT22;24692;45.642;13.806;2024-02-23T12:08:29;13.40;99.90
36444;DHT22;24692;45.642;13.806;2024-02-23T12:10:55;13.40;99.90
36444;DHT22;24692;45.642;13.806;2024-02-23T12:13:22;13.60;99.90
36444;DHT22;24692;45.642;13.806;2024-02-23T12:15:48;13.50;99.90
36444;DHT22;24692;45.642;13.806;2024-02-23T12:18:18;13.40;99.90
36444;DHT22;24692;45.642;13.806;2024-02-23T12:20:49;13.70;99.90
36444;DHT22;24692;45.642;13.806;2024-02-23T12:23:14;13.80;99.90
36444;DHT22;24692;45.642;13.806;2024-02-23T12:25:41;13.70;99.90
36444;DHT22;24692;45.642;13.806;2024-02-23T12:28:18;13.80;99.90
36444;DHT22;24692;45.642;13.806;2024-02-23T12:30:44;14.00;99.90
36444;DHT22;24692;45.642;13.806;2024-02-23T12:33:15;14.10;99.90
36444;DHT22;24692;45.642;13.806;2024-02-23T12:35:41;13.90;99.90
36444;DHT22;24692;45.642;13.806;2024-02-23T12:38:07;13.80;99.90
36444;DHT22;24692;45.642;13.806;2024-02-23T12:40:32;13.70;99.90
36444;DHT22;24692;45.642;13.806;2024-02-23T12:42:58;13.60;99.90
36444;DHT22;24692;45.642;13.806;2024-02-23T12:45:24;13.40;99.90
36444;DHT22;24692;45.642;13.806;2024-02-23T12:47:49;13.40;99.90
36444;DHT22;24692;45.642;13.806;2024-02-23T12:50:15;13.40;99.90
36444;DHT22;24692;45.642;13.806;2024-02-23T12:52:42;13.40;99.90
36444;DHT22;24692;45.642;13.806;2024-02-23T12:55:08;13.50;99.90
36444;DHT22;24692;45.642;13.806;2024-02-23T12:57:34;13.50;99.90
36444;DHT22;24692;45.642;13.806;2024-02-23T13:00:00;13.50;99.90
36444;DHT22;24692;45.642;13.806;2024-02-23T13:02:26;13.60;99.90
36444;DHT22;24692;45.642;13.806;2024-02-23T13:04:51;13.60;99.90
36444;DHT22;24692;45.642;13.806;2024-02-23T13:07:17;13.70;99.90
36444;DHT22;24692;45.642;13.806;2024-02-23T13:09:43;13.60;99.90
36444;DHT22;24692;45.642;13.806;2024-02-23T13:12:09;13.60;99.90
36444;DHT22;24692;45.642;13.806;2024-02-23T13:14:35;13.60;99.90
36444;DHT22;24692;45.642;13.806;2024-02-23T13:17:01;13.60;99.90
36444;DHT22;24692;45.642;13.806;2024-02-23T13:19:26;13.50;99.90
36444;DHT22;24692;45.642;13.806;2024-02-23T13:21:52;13.50;99.90
36444;DHT22;24692;45.642;13.806;2024-02-23T13:24:18;13.50;99.90
36444;DHT22;24692;45.642;13.806;2024-02-23T13:26:44;13.40;99.90
36444;DHT22;24692;45.642;13.806;2024-02-23T13:29:10;13.40;99.90
36444;DHT22;24692;45.642;13.806;2024-02-23T13:31:36;13.40;99.90
36444;DHT22;24692;45.642;13.806;2024-02-23T13:34:03;13.40;99.90
36444;DHT22;24692;45.642;13.806;2024-02-23T13:36:29;13.50;99.90
36444;DHT22;24692;45.642;13.806;2024-02-23T13:38:55;13.50;99.90
36444;DHT22;24692;45.642;13.806;2024-02-23T13:41:20;13.50;99.90
36444;DHT22;24692;45.642;13.806;2024-02-23T13:43:46;13.30;99.90
36444;DHT22;24692;45.642;13.806;2024-02-23T13:46:12;13.20;99.90
36444;DHT22;24692;45.642;13.806;2024-02-23T13:48:37;13.10;99.90
36444;DHT22;24692;45.642;13.806;2024-02-23T13:51:03;13.00;99.90
36444;DHT22;24692;45.642;13.806;2024-02-23T13:53:31;12.90;99.90
36444;DHT22;24692;45.642;13.806;2024-02-23T13:55:57;12.90;99.90
36444;DHT22;24692;45.642;13.806;2024-02-23T13:58:23;12.90;99.90
36444;DHT22;24692;45.642;13.806;2024-02-23T14:00:48;12.90;99.90
36444;DHT22;24692;45.642;13.806;2024-02-23T14:03:16;12.80;99.90
36444;DHT22;24692;45.642;13.806;2024-02-23T14:05:46;12.70;99.90
36444;DHT22;24692;45.642;13.806;2024-02-23T14:08:12;12.60;99.90
36444;DHT22;24692;45.642;13.806;2024-02-23T14:10:38;12.60;99.90
36444;DHT22;24692;45.642;13.806;2024-02-23T14:13:05;12.60;99.90
36444;DHT22;24692;45.642;13.806;2024-02-23T14:15:31;12.60;99.90
36444;DHT22;24692;45.642;13.806;2024-02-23T14:17:57;12.70;99.90
36444;DHT22;24692;45.642;13.806;2024-02-23T14:20:23;12.60;99.90
36444;DHT22;24692;45.642;13.806;2024-02-23T14:22:49;12.60;99.90
36444;DHT22;24692;45.642;13.806;2024-02-23T14:25:15;12.50;99.90
36444;DHT22;24692;45.642;13.806;2024-02-23T14:27:41;12.50;99.90
36444;DHT22;24692;45.642;13.806;2024-02-23T14:30:08;12.60;99.90
36444;DHT22;24692;45.642;13.806;2024-02-23T14:32:33;12.60;99.90
36444;DHT22;24692;45.642;13.806;2024-02-23T14:35:02;12.60;99.90
36444;DHT22;24692;45.642;13.806;2024-02-23T14:37:28;12.60;99.90
36444;DHT22;24692;45.642;13.806;2024-02-23T14:39:54;12.60;99.90
36444;DHT22;24692;45.642;13.806;2024-02-23T14:42:20;12.60;99.90
36444;DHT22;24692;45.642;13.806;2024-02-23T14:44:45;12.60;99.90
36444;DHT22;24692;45.642;13.806;2024-02-23T14:47:11;12.70;99.90
36444;DHT22;24692;45.642;13.806;2024-02-23T14:49:38;12.70;99.90
36444;DHT22;24692;45.642;13.806;2024-02-23T14:52:04;12.80;99.90
36444;DHT22;24692;45.642;13.806;2024-02-23T14:54:30;12.80;99.90
36444;DHT22;24692;45.642;13.806;2024-02-23T14:56:56;12.80;99.90
36444;DHT22;24692;45.642;13.806;2024-02-23T14:59:22;12.80;99.90
36444;DHT22;24692;45.642;13.806;2024-02-23T15:01:47;12.90;99.90
36444;DHT22;24692;45.642;13.806;2024-02-23T15:04:14;13.00;99.90
36444;DHT22;24692;45.642;13.806;2024-02-23T15:06:39;13.10;99.90
36444;DHT22;24692;45.642;13.806;2024-02-23T15:09:05;13.10;99.90
36444;DHT22;24692;45.642;13.806;2024-02-23T15:11:32;13.20;99.90
36444;DHT22;24692;45.642;13.806;2024-02-23T15:13:57;13.20;99.90
36444;DHT22;24692;45.642;13.806;2024-02-23T15:16:29;13.20;99.90